createdAt,value
2023-02-17T00:01:28.641Z,70.95
2023-02-17T00:03:57.296Z,77.93
2023-02-17T00:06:27.673Z,84.20
2023-02-17T00:08:56.819Z,76.50
2023-02-17T00:11:25.134Z,85.57
2023-02-17T00:13:56.214Z,85.15
2023-02-17T00:16:27.469Z,108.22
2023-02-17T00:18:57.632Z,105.25
2023-02-17T00:21:28.558Z,89.15
2023-02-17T00:23:58.823Z,112.40
2023-02-17T00:26:27.105Z,101.32
2023-02-17T00:28:55.416Z,108.00
2023-02-17T00:31:24.813Z,107.20
2023-02-17T00:33:57.358Z,90.05
2023-02-17T00:36:26.586Z,87.38
2023-02-17T00:38:56.400Z,92.90
2023-02-17T00:41:25.557Z,73.05
2023-02-17T00:43:54.044Z,75.80
2023-02-17T00:46:23.955Z,67.88
2023-02-17T00:48:54.736Z,77.20
2023-02-17T00:51:25.059Z,70.47
2023-02-17T00:53:53.323Z,81.18
2023-02-17T00:56:21.604Z,80.07
2023-02-17T00:58:49.769Z,82.03
2023-02-17T01:01:18.240Z,69.18
2023-02-17T01:03:46.475Z,61.88
2023-02-17T01:06:34.939Z,76.78
2023-02-17T01:09:04.105Z,49.33
2023-02-17T01:11:34.872Z,46.47
2023-02-17T01:14:06.339Z,53.38
2023-02-17T01:16:45.799Z,50.30
2023-02-17T01:19:16.445Z,44.38
2023-02-17T01:21:47.438Z,38.03
2023-02-17T01:24:15.745Z,52.53
2023-02-17T01:26:44.015Z,67.40
2023-02-17T01:29:12.181Z,51.78
2023-02-17T01:31:41.758Z,53.00
2023-02-17T01:34:13.209Z,48.20
2023-02-17T01:36:41.405Z,47.00
2023-02-17T01:39:14.929Z,48.55
2023-02-17T01:41:43.820Z,46.30
2023-02-17T01:44:16.972Z,53.60
2023-02-17T01:46:47.111Z,48.13
2023-02-17T01:49:31.128Z,46.47
2023-02-17T01:52:08.363Z,44.65
2023-02-17T01:54:43.274Z,51.45
2023-02-17T01:57:13.692Z,56.90
2023-02-17T01:59:43.324Z,55.60
2023-02-17T02:02:12.496Z,69.63
2023-02-17T02:04:47.117Z,70.13
2023-02-17T02:07:18.988Z,67.60
2023-02-17T02:09:54.057Z,61.75
2023-02-17T02:12:25.093Z,70.32
2023-02-17T02:14:55.609Z,59.45
2023-02-17T02:17:36.686Z,74.32
2023-02-17T02:20:29.799Z,66.10
2023-02-17T02:23:39.288Z,68.72
2023-02-17T02:26:43.402Z,65.93
2023-02-17T02:29:31.521Z,63.88
2023-02-17T02:32:17.348Z,64.47
2023-02-17T02:34:51.032Z,61.20
2023-02-17T02:37:26.527Z,65.05
2023-02-17T02:39:57.858Z,63.25
2023-02-17T02:42:27.121Z,66.05
2023-02-17T02:44:55.425Z,70.47
2023-02-17T02:47:49.421Z,77.63
2023-02-17T02:50:34.807Z,72.22
2023-02-17T02:53:28.629Z,66.47
2023-02-17T02:56:07.017Z,71.55
2023-02-17T02:58:42.543Z,55.88
2023-02-17T03:01:18.617Z,55.47
2023-02-17T03:03:56.494Z,60.30
2023-02-17T03:06:31.868Z,59.47
2023-02-17T03:09:05.370Z,55.22
2023-02-17T03:11:33.853Z,61.03
2023-02-17T03:14:05.989Z,65.18
2023-02-17T03:16:35.852Z,76.15
2023-02-17T03:19:06.313Z,70.22
2023-02-17T03:21:39.050Z,63.08
2023-02-17T03:24:08.465Z,75.70
2023-02-17T03:26:36.838Z,66.85
2023-02-17T03:29:05.937Z,65.03
2023-02-17T03:31:34.413Z,76.05
2023-02-17T03:34:02.930Z,74.85
2023-02-17T03:36:32.647Z,74.82
2023-02-17T03:39:01.026Z,69.18
2023-02-17T03:41:29.373Z,70.20
2023-02-17T03:43:57.569Z,62.70
2023-02-17T03:46:25.824Z,65.90
2023-02-17T03:48:54.029Z,56.17
2023-02-17T03:51:24.241Z,51.85
2023-02-17T03:53:54.192Z,51.20
2023-02-17T03:56:22.442Z,54.45
2023-02-17T03:58:50.663Z,57.17
2023-02-17T04:01:19.038Z,55.75
2023-02-17T04:03:47.324Z,50.63
2023-02-17T04:06:15.628Z,58.47
2023-02-17T04:08:43.832Z,52.70
2023-02-17T04:11:13.458Z,49.78
2023-02-17T04:13:41.801Z,47.47
2023-02-17T04:16:11.362Z,59.28
2023-02-17T04:18:40.001Z,66.15
2023-02-17T04:21:08.953Z,64.68
2023-02-17T04:23:38.041Z,68.43
2023-02-17T04:26:08.096Z,71.60
2023-02-17T04:28:39.203Z,72.13
2023-02-17T04:31:07.803Z,66.50
2023-02-17T04:33:38.055Z,70.88
2023-02-17T04:36:07.945Z,70.18
2023-02-17T04:38:36.631Z,70.63
2023-02-17T04:41:06.351Z,67.32
2023-02-17T04:43:35.032Z,71.40
2023-02-17T04:46:05.238Z,80.93
2023-02-17T04:48:33.683Z,65.57
2023-02-17T04:51:01.876Z,85.50
2023-02-17T04:53:30.122Z,72.70
2023-02-17T04:55:58.305Z,78.22
2023-02-17T04:58:26.508Z,71.13
2023-02-17T05:00:54.772Z,80.80
2023-02-17T05:03:24.452Z,65.45
2023-02-17T05:05:52.752Z,63.80
2023-02-17T05:08:20.999Z,62.50
2023-02-17T05:10:49.190Z,55.42
2023-02-17T05:13:17.400Z,65.63
2023-02-17T05:15:46.133Z,66.30
2023-02-17T05:18:15.217Z,57.13
2023-02-17T05:20:44.772Z,53.90
2023-02-17T05:23:13.079Z,59.22
2023-02-17T05:25:41.704Z,58.15
2023-02-17T05:28:10.051Z,56.72
2023-02-17T05:30:38.303Z,50.83
2023-02-17T05:33:06.546Z,59.92
2023-02-17T05:35:35.839Z,50.88
2023-02-17T05:38:05.412Z,44.30
2023-02-17T05:40:33.642Z,53.72
2023-02-17T05:43:01.881Z,42.88
2023-02-17T05:45:30.229Z,41.90
2023-02-17T05:47:58.475Z,46.65
2023-02-17T05:50:26.750Z,46.78
2023-02-17T05:52:54.990Z,49.10
2023-02-17T05:55:24.638Z,53.53
2023-02-17T05:57:52.897Z,57.80
2023-02-17T06:00:21.454Z,55.65
2023-02-17T06:02:49.626Z,70.90
2023-02-17T06:05:18.108Z,54.78
2023-02-17T06:07:46.434Z,56.85
2023-02-17T06:10:15.078Z,53.70
2023-02-17T06:12:44.605Z,50.17
2023-02-17T06:15:12.906Z,48.45
2023-02-17T06:17:41.180Z,46.30
2023-02-17T06:20:11.130Z,44.75
2023-02-17T06:22:39.408Z,49.92
2023-02-17T06:25:08.127Z,45.63
2023-02-17T06:27:36.645Z,49.83
2023-02-17T06:30:07.584Z,48.08
2023-02-17T06:32:35.917Z,50.35
2023-02-17T06:35:04.531Z,48.30
2023-02-17T06:37:32.841Z,42.92
2023-02-17T06:40:01.117Z,50.20
2023-02-17T06:42:29.817Z,49.28
2023-02-17T06:44:58.500Z,58.45
2023-02-17T06:47:28.050Z,52.97
2023-02-17T06:49:56.802Z,57.88
2023-02-17T06:52:25.027Z,52.40
2023-02-17T06:54:53.338Z,55.63
2023-02-17T06:57:21.532Z,52.05
2023-02-17T06:59:49.772Z,54.53
2023-02-17T07:02:18.048Z,48.28
2023-02-17T07:04:47.689Z,54.33
2023-02-17T07:07:15.923Z,51.10
2023-02-17T07:09:44.201Z,45.92
2023-02-17T07:12:12.436Z,48.13
2023-02-17T07:14:41.443Z,50.00
2023-02-17T07:17:09.656Z,47.03
2023-02-17T07:19:37.969Z,46.92
2023-02-17T07:22:07.514Z,54.70
2023-02-17T07:24:35.782Z,50.33
2023-02-17T07:27:06.539Z,49.17
2023-02-17T07:29:35.093Z,54.22
2023-02-17T07:32:03.315Z,50.40
2023-02-17T07:34:31.600Z,53.58
2023-02-17T07:36:59.769Z,62.15
2023-02-17T07:39:29.387Z,52.50
2023-02-17T07:42:01.123Z,60.35
2023-02-17T07:44:29.503Z,51.90
2023-02-17T07:46:57.661Z,55.80
2023-02-17T07:49:25.925Z,57.28
2023-02-17T07:51:54.113Z,46.75
2023-02-17T07:54:22.652Z,52.30
2023-02-17T07:56:52.166Z,54.97
2023-02-17T07:59:20.335Z,49.03
2023-02-17T08:01:48.586Z,48.22
2023-02-17T08:04:18.180Z,48.33
2023-02-17T08:06:46.420Z,43.00
2023-02-17T08:09:32.425Z,46.63
2023-02-17T08:12:19.718Z,46.70
2023-02-17T08:14:47.929Z,42.57
2023-02-17T08:17:16.151Z,60.97
2023-02-17T08:19:48.629Z,47.63
2023-02-17T08:22:17.767Z,41.50
2023-02-17T08:24:46.483Z,45.17
2023-02-17T08:27:17.107Z,44.57
2023-02-17T08:29:46.413Z,39.53
2023-02-17T08:32:15.631Z,39.00
2023-02-17T08:34:44.266Z,46.70
2023-02-17T08:37:13.270Z,45.83
2023-02-17T08:39:41.542Z,43.10
2023-02-17T08:42:10.537Z,46.43
2023-02-17T08:44:40.394Z,40.83
2023-02-17T08:47:10.596Z,35.97
2023-02-17T08:49:39.024Z,25.90
2023-02-17T08:52:07.277Z,14.87
2023-02-17T08:54:35.574Z,11.07
2023-02-17T08:57:03.861Z,19.53
2023-02-17T08:59:32.167Z,16.47
2023-02-17T09:02:01.676Z,26.00
2023-02-17T09:04:30.057Z,13.47
2023-02-17T09:06:58.494Z,14.63
2023-02-17T09:09:28.353Z,15.70
2023-02-17T09:11:58.718Z,12.63
2023-02-17T09:14:27.029Z,11.80
2023-02-17T09:16:56.479Z,10.73
2023-02-17T09:19:26.515Z,12.17
2023-02-17T09:21:54.799Z,10.57
2023-02-17T09:24:23.358Z,14.97
2023-02-17T09:26:51.561Z,11.20
2023-02-17T09:29:19.870Z,10.70
2023-02-17T09:31:48.236Z,9.43
2023-02-17T09:34:16.612Z,10.10
2023-02-17T09:36:46.399Z,8.77
2023-02-17T09:39:14.994Z,9.07
2023-02-17T09:41:47.312Z,12.43
2023-02-17T09:44:21.944Z,9.87
2023-02-17T09:47:02.688Z,12.17
2023-02-17T09:49:38.006Z,8.13
2023-02-17T09:52:14.430Z,8.33
2023-02-17T09:54:50.883Z,10.60
2023-02-17T09:57:22.807Z,9.23
2023-02-17T09:59:55.314Z,8.23
2023-02-17T10:02:29.146Z,8.87
2023-02-17T10:05:01.860Z,9.60
2023-02-17T10:07:36.420Z,9.50
2023-02-17T10:10:09.567Z,10.77
2023-02-17T10:12:42.158Z,9.87
2023-02-17T10:15:17.946Z,9.70
2023-02-17T10:17:53.033Z,10.57
2023-02-17T10:20:24.756Z,9.60
2023-02-17T10:23:00.900Z,10.10
2023-02-17T10:26:07.391Z,9.43
2023-02-17T10:28:50.309Z,8.90
2023-02-17T10:31:27.915Z,9.70
2023-02-17T10:34:03.838Z,8.63
2023-02-17T10:36:44.132Z,11.70
2023-02-17T10:39:16.365Z,9.47
2023-02-17T10:41:49.345Z,11.33
2023-02-17T10:44:22.333Z,10.00
2023-02-17T10:46:51.957Z,7.37
2023-02-17T10:49:28.089Z,6.57
2023-02-17T10:52:02.105Z,5.83
2023-02-17T10:54:36.886Z,6.90
2023-02-17T10:57:09.271Z,6.93
2023-02-17T10:59:41.106Z,6.43
2023-02-17T11:02:18.127Z,8.17
2023-02-17T11:04:48.119Z,9.87
2023-02-17T11:07:19.121Z,8.53
2023-02-17T11:09:50.794Z,6.57
2023-02-17T11:12:23.532Z,6.03
2023-02-17T11:14:55.316Z,7.57
2023-02-17T11:17:29.442Z,5.47
2023-02-17T11:20:00.197Z,6.20
2023-02-17T11:22:34.115Z,6.53
2023-02-17T11:25:07.712Z,7.10
2023-02-17T11:27:36.493Z,6.67
2023-02-17T11:30:10.996Z,8.13
2023-02-17T11:32:39.578Z,9.00
2023-02-17T11:35:25.567Z,6.77
2023-02-17T11:38:01.486Z,5.87
2023-02-17T11:40:33.354Z,8.33
2023-02-17T11:43:03.792Z,7.80
2023-02-17T11:45:41.480Z,7.33
2023-02-17T11:48:31.965Z,7.77
2023-02-17T11:51:09.746Z,7.70
2023-02-17T11:53:55.118Z,8.60
2023-02-17T11:56:29.725Z,7.50
2023-02-17T11:59:18.935Z,9.60
2023-02-17T12:02:06.066Z,9.20
2023-02-17T12:04:40.713Z,6.90
2023-02-17T12:07:28.887Z,6.77
2023-02-17T12:10:04.746Z,6.67
2023-02-17T12:12:48.628Z,7.60
2023-02-17T12:15:28.686Z,6.60
2023-02-17T12:18:07.562Z,9.57
2023-02-17T12:20:47.472Z,9.40
2023-02-17T12:23:32.501Z,11.10
2023-02-17T12:26:07.943Z,7.30
2023-02-17T12:28:47.696Z,9.53
2023-02-17T12:31:31.405Z,7.37
2023-02-17T12:34:04.906Z,7.20
2023-02-17T12:36:37.836Z,7.57
2023-02-17T12:39:14.709Z,9.20
2023-02-17T12:41:49.107Z,11.20
2023-02-17T12:44:23.496Z,7.60
2023-02-17T12:46:56.456Z,6.57
2023-02-17T12:49:33.784Z,7.97
2023-02-17T12:52:11.516Z,9.50
2023-02-17T12:54:44.501Z,10.60
2023-02-17T12:57:16.462Z,6.93
2023-02-17T12:59:47.948Z,8.43
2023-02-17T13:02:18.947Z,9.50
2023-02-17T13:04:50.895Z,8.73
2023-02-17T13:07:38.661Z,8.83
2023-02-17T13:10:08.930Z,7.90
2023-02-17T13:12:41.927Z,8.73
2023-02-17T13:15:30.808Z,7.40
2023-02-17T13:18:04.340Z,7.00
2023-02-17T13:20:45.753Z,6.80
2023-02-17T13:23:15.852Z,8.17
2023-02-17T13:25:44.200Z,7.47
2023-02-17T13:28:34.917Z,6.50
2023-02-17T13:31:19.495Z,7.30
2023-02-17T13:33:52.311Z,6.43
2023-02-17T13:36:36.923Z,7.90
2023-02-17T13:39:08.563Z,6.50
2023-02-17T13:41:47.034Z,6.37
2023-02-17T13:44:29.283Z,7.47
2023-02-17T13:47:02.723Z,6.73
2023-02-17T13:49:35.005Z,7.10
2023-02-17T13:52:12.177Z,9.17
2023-02-17T13:54:42.038Z,7.93
2023-02-17T13:57:24.350Z,6.43
2023-02-17T13:59:52.528Z,6.73
2023-02-17T14:02:35.432Z,8.27
2023-02-17T14:05:17.373Z,7.27
2023-02-17T14:07:47.602Z,6.93
2023-02-17T14:10:21.669Z,7.23
2023-02-17T14:12:50.488Z,8.30
2023-02-17T14:15:20.503Z,8.40
2023-02-17T14:17:50.229Z,8.97
2023-02-17T14:20:30.167Z,10.30
2023-02-17T14:23:05.157Z,8.60
2023-02-17T14:25:36.500Z,9.10
2023-02-17T14:28:06.171Z,7.73
2023-02-17T14:30:36.458Z,8.63
2023-02-17T14:33:19.907Z,9.83
2023-02-17T14:35:52.923Z,8.20
2023-02-17T14:38:23.396Z,10.97
2023-02-17T14:40:53.504Z,10.23
2023-02-17T14:43:21.838Z,8.00
2023-02-17T14:45:50.510Z,8.90
2023-02-17T14:48:20.604Z,9.53
2023-02-17T14:50:49.241Z,9.37
2023-02-17T14:53:25.741Z,12.10
2023-02-17T14:55:59.974Z,15.13
2023-02-17T14:58:30.081Z,10.37
2023-02-17T15:00:58.352Z,11.53
2023-02-17T15:03:28.126Z,9.97
2023-02-17T15:05:56.644Z,13.33
2023-02-17T15:08:32.313Z,15.13
2023-02-17T15:11:00.595Z,11.67
2023-02-17T15:13:28.890Z,14.00
2023-02-17T15:15:57.304Z,13.33
2023-02-17T15:18:27.869Z,25.80
2023-02-17T15:20:58.328Z,15.20
2023-02-17T15:23:26.719Z,18.90
2023-02-17T15:25:56.598Z,16.93
2023-02-17T15:28:24.907Z,12.37
2023-02-17T15:30:56.296Z,13.10
2023-02-17T15:33:25.482Z,12.30
2023-02-17T15:35:55.482Z,13.13
2023-02-17T15:38:27.246Z,10.93
2023-02-17T15:40:58.468Z,15.80
2023-02-17T15:46:13.815Z,10.43
2023-02-17T15:48:43.496Z,9.63
2023-02-17T15:51:15.064Z,10.20
2023-02-17T15:53:44.743Z,13.20
2023-02-17T15:56:16.072Z,10.47
2023-02-17T15:58:44.875Z,12.80
2023-02-17T16:01:22.478Z,11.30
2023-02-17T16:03:50.767Z,9.17
2023-02-17T16:06:18.984Z,9.50
2023-02-17T16:08:48.656Z,10.13
2023-02-17T16:11:18.637Z,9.57
2023-02-17T16:13:47.922Z,9.80
2023-02-17T16:16:20.151Z,7.40
2023-02-17T16:18:48.870Z,9.20
2023-02-17T16:21:17.258Z,7.53
2023-02-17T16:23:45.733Z,12.77
2023-02-17T16:26:18.739Z,12.63
2023-02-17T16:28:46.954Z,10.52
2023-02-17T16:31:15.383Z,15.07
2023-02-17T16:33:43.650Z,13.77
2023-02-17T16:36:15.883Z,18.15
2023-02-17T16:38:44.997Z,10.55
2023-02-17T16:41:16.254Z,11.88
2023-02-17T16:43:45.351Z,11.07
2023-02-17T16:46:21.505Z,11.40
2023-02-17T16:48:49.866Z,9.23
2023-02-17T16:51:18.024Z,11.82
2023-02-17T16:53:46.221Z,13.95
2023-02-17T16:56:20.889Z,12.88
2023-02-17T16:58:49.164Z,20.52
2023-02-17T17:01:17.370Z,10.40
2023-02-17T17:03:45.678Z,11.80
2023-02-17T17:06:20.725Z,9.18
2023-02-17T17:08:50.235Z,9.02
2023-02-17T17:11:22.084Z,10.57
2023-02-17T17:13:51.065Z,9.80
2023-02-17T17:16:22.487Z,12.38
2023-02-17T17:18:50.785Z,11.80
2023-02-17T17:21:20.658Z,12.88
2023-02-17T17:23:50.704Z,10.32
2023-02-17T17:26:26.158Z,14.25
2023-02-17T17:28:54.581Z,18.10
2023-02-17T17:31:23.435Z,15.82
2023-02-17T17:33:52.662Z,15.98
2023-02-17T17:36:25.132Z,12.60
2023-02-17T17:38:54.029Z,10.63
2023-02-17T17:41:24.874Z,12.02
2023-02-17T17:43:53.320Z,15.52
2023-02-17T17:46:24.323Z,13.70
2023-02-17T17:48:52.763Z,11.52
2023-02-17T17:51:23.170Z,12.10
2023-02-17T17:53:51.901Z,10.60
2023-02-17T17:56:22.158Z,15.07
2023-02-17T17:58:52.115Z,16.05
2023-02-17T18:01:21.598Z,25.48
2023-02-17T18:03:51.079Z,16.20
2023-02-17T18:06:22.684Z,18.20
2023-02-17T18:08:53.503Z,39.45
2023-02-17T18:11:25.134Z,14.68
2023-02-17T18:13:57.853Z,14.15
2023-02-17T18:16:28.282Z,17.05
2023-02-17T18:18:58.702Z,14.15
2023-02-17T18:21:26.978Z,14.02
2023-02-17T18:23:55.168Z,19.42
2023-02-17T18:26:23.478Z,25.70
2023-02-17T18:28:51.709Z,23.17
2023-02-17T18:31:22.221Z,25.63
2023-02-17T18:33:50.921Z,22.35
2023-02-17T18:36:21.498Z,18.40
2023-02-17T18:38:50.299Z,26.80
2023-02-17T18:41:20.316Z,24.45
2023-02-17T18:43:49.126Z,18.92
2023-02-17T18:46:17.428Z,18.17
2023-02-17T18:48:47.929Z,17.88
2023-02-17T18:51:19.331Z,29.65
2023-02-17T18:53:49.072Z,19.33
2023-02-17T18:56:20.771Z,98.72
2023-02-17T18:58:49.603Z,25.08
2023-02-17T19:01:18.771Z,31.05
2023-02-17T19:03:48.750Z,36.85
2023-02-17T19:06:20.381Z,32.92
2023-02-17T19:08:49.893Z,32.33
2023-02-17T19:11:19.143Z,19.92
2023-02-17T19:13:47.690Z,17.20
2023-02-17T19:16:18.664Z,21.02
2023-02-17T19:18:48.928Z,20.63
2023-02-17T19:21:17.358Z,14.60
2023-02-17T19:23:46.097Z,26.77
2023-02-17T19:26:15.371Z,31.00
2023-02-17T19:28:44.324Z,38.38
2023-02-17T19:31:15.335Z,27.42
2023-02-17T19:33:44.433Z,40.33
2023-02-17T19:36:16.400Z,32.83
2023-02-17T19:38:44.937Z,34.05
2023-02-17T19:41:14.286Z,41.53
2023-02-17T19:43:43.780Z,39.25
2023-02-17T19:46:13.140Z,30.98
2023-02-17T19:48:41.996Z,34.70
2023-02-17T19:51:12.413Z,36.25
2023-02-17T19:53:43.524Z,33.25
2023-02-17T19:56:13.744Z,23.40
2023-02-17T19:58:43.816Z,21.83
2023-02-17T20:01:17.115Z,20.02
2023-02-17T20:03:46.004Z,26.25
2023-02-17T20:06:17.206Z,26.38
2023-02-17T20:08:47.716Z,26.80
2023-02-17T20:11:16.413Z,26.10
2023-02-17T20:13:46.328Z,19.80
2023-02-17T20:16:17.182Z,23.02
2023-02-17T20:18:48.730Z,25.48
2023-02-17T20:21:19.357Z,21.02
2023-02-17T20:23:49.735Z,15.45
2023-02-17T20:26:20.007Z,22.38
2023-02-17T20:28:49.315Z,25.48
2023-02-17T20:31:18.416Z,27.63
2023-02-17T20:33:47.423Z,26.55
2023-02-17T20:36:15.792Z,22.63
2023-02-17T20:38:44.929Z,23.88
2023-02-17T20:41:18.332Z,30.05
2023-02-17T20:43:46.580Z,30.40
2023-02-17T20:46:17.792Z,24.30
2023-02-17T20:48:46.575Z,22.48
2023-02-17T20:51:14.907Z,20.55
2023-02-17T20:53:43.159Z,18.98
2023-02-17T20:56:18.065Z,18.85
2023-02-17T20:58:46.388Z,21.92
2023-02-17T21:01:14.723Z,25.45
2023-02-17T21:03:43.092Z,20.13
2023-02-17T21:06:22.237Z,19.23
2023-02-17T21:08:52.769Z,21.80
2023-02-17T21:11:23.091Z,16.73
2023-02-17T21:13:51.513Z,18.38
2023-02-17T21:16:22.357Z,19.45
2023-02-17T21:18:50.788Z,17.85
2023-02-17T21:21:19.205Z,16.48
2023-02-17T21:23:48.118Z,16.40
2023-02-17T21:26:17.431Z,20.00
2023-02-17T21:28:48.225Z,25.15
2023-02-17T21:31:16.566Z,21.05
2023-02-17T21:33:44.993Z,20.23
2023-02-17T21:36:15.201Z,18.10
2023-02-17T21:38:43.510Z,20.75
2023-02-17T21:41:14.417Z,26.58
2023-02-17T21:44:00.236Z,19.90
2023-02-17T21:46:30.233Z,20.15
2023-02-17T21:49:00.738Z,36.22
2023-02-17T21:51:29.344Z,22.00
2023-02-17T21:53:57.942Z,27.23
2023-02-17T21:56:26.990Z,19.02
2023-02-17T21:58:56.593Z,15.07
2023-02-17T22:01:26.844Z,19.75
2023-02-17T22:03:57.784Z,17.08
2023-02-17T22:06:28.314Z,16.45
2023-02-17T22:08:57.925Z,20.38
2023-02-17T22:11:27.919Z,18.85
2023-02-17T22:13:57.418Z,14.77
2023-02-17T22:16:26.114Z,16.80
2023-02-17T22:18:54.472Z,15.25
2023-02-17T22:21:24.342Z,16.75
2023-02-17T22:23:52.680Z,22.13
2023-02-17T22:26:23.450Z,17.75
2023-02-17T22:28:52.038Z,16.48
2023-02-17T22:31:22.373Z,17.75
2023-02-17T22:33:50.684Z,18.65
2023-02-17T22:36:22.161Z,19.95
2023-02-17T22:38:52.546Z,16.80
2023-02-17T22:41:23.814Z,21.10
2023-02-17T22:43:52.727Z,18.85
2023-02-17T22:46:22.920Z,24.65
2023-02-17T22:48:52.886Z,20.52
2023-02-17T22:51:23.516Z,19.00
2023-02-17T22:53:53.236Z,21.63
2023-02-17T22:56:22.392Z,21.48
2023-02-17T22:58:55.727Z,23.17
2023-02-17T23:01:24.736Z,25.88
2023-02-17T23:03:54.573Z,21.70
2023-02-17T23:06:24.823Z,23.95
2023-02-17T23:08:55.295Z,36.67
2023-02-17T23:11:40.460Z,31.80
2023-02-17T23:14:09.366Z,29.15
2023-02-17T23:16:37.640Z,31.35
2023-02-17T23:19:08.413Z,34.42
2023-02-17T23:21:37.021Z,31.10
2023-02-17T23:24:07.245Z,27.08
2023-02-17T23:26:35.459Z,36.92
2023-02-17T23:29:03.770Z,37.05
2023-02-17T23:31:32.204Z,36.35
2023-02-17T23:34:00.601Z,48.70
2023-02-17T23:36:28.990Z,38.70
2023-02-17T23:38:59.039Z,44.83
2023-02-17T23:41:29.345Z,25.52
2023-02-17T23:43:57.590Z,24.55
2023-02-17T23:46:25.770Z,26.65
2023-02-17T23:48:53.983Z,24.70
2023-02-17T23:51:22.276Z,31.92
2023-02-17T23:53:50.537Z,50.80
2023-02-17T23:56:23.031Z,24.48
2023-02-17T23:58:52.953Z,23.70
